createdAt,value
2017-09-14T00:00:23.967Z,12.28
2017-09-14T00:01:24.547Z,12.22
2017-09-14T00:02:25.113Z,12.22
2017-09-14T00:03:25.686Z,12.25
2017-09-14T00:04:26.258Z,12.22
2017-09-14T00:05:26.829Z,12.09
2017-09-14T00:06:27.400Z,12.10
2017-09-14T00:07:27.972Z,12.09
2017-09-14T00:08:28.554Z,12.18
2017-09-14T00:09:29.116Z,12.15
2017-09-14T00:10:29.689Z,12.13
2017-09-14T00:11:30.262Z,12.13
2017-09-14T00:12:30.836Z,12.15
2017-09-14T00:13:31.408Z,12.09
2017-09-14T00:14:31.981Z,12.18
2017-09-14T00:15:32.552Z,12.13
2017-09-14T00:16:33.123Z,12.03
2017-09-14T00:17:33.695Z,12.06
2017-09-14T00:18:34.265Z,12.12
2017-09-14T00:19:34.837Z,12.07
2017-09-14T00:20:35.409Z,12.07
2017-09-14T00:21:35.980Z,12.06
2017-09-14T00:22:36.551Z,12.12
2017-09-14T00:23:37.126Z,12.07
2017-09-14T00:24:37.697Z,12.13
2017-09-14T00:25:38.272Z,12.09
2017-09-14T00:26:38.842Z,12.09
2017-09-14T00:27:39.416Z,12.06
2017-09-14T00:28:39.988Z,12.10
2017-09-14T00:29:40.560Z,12.09
2017-09-14T00:30:41.144Z,12.06
2017-09-14T00:31:41.719Z,12.09
2017-09-14T00:32:42.288Z,11.99
2017-09-14T00:33:42.861Z,12.04
2017-09-14T00:34:43.432Z,12.02
2017-09-14T00:35:44.003Z,12.02
2017-09-14T00:36:44.574Z,12.09
2017-09-14T00:37:45.145Z,11.99
2017-09-14T00:38:45.716Z,11.95
2017-09-14T00:39:46.288Z,11.94
2017-09-14T00:40:46.861Z,12.03
2017-09-14T00:41:47.434Z,11.91
2017-09-14T00:42:48.008Z,12.00
2017-09-14T00:43:48.581Z,11.97
2017-09-14T00:44:49.171Z,11.97
2017-09-14T00:45:49.735Z,11.87
2017-09-14T00:46:50.308Z,11.95
2017-09-14T00:47:50.881Z,11.87
2017-09-14T00:48:51.460Z,11.94
2017-09-14T00:49:52.042Z,11.87
2017-09-14T00:50:52.610Z,11.90
2017-09-14T00:51:53.185Z,11.86
2017-09-14T00:52:53.754Z,11.88
2017-09-14T00:53:54.327Z,11.86
2017-09-14T00:54:54.897Z,11.80
2017-09-14T00:55:55.470Z,11.90
2017-09-14T00:56:56.040Z,11.84
2017-09-14T00:57:56.611Z,11.80
2017-09-14T00:58:57.182Z,11.87
2017-09-14T00:59:57.767Z,11.88
2017-09-14T01:00:58.325Z,11.90
2017-09-14T01:01:58.897Z,11.84
2017-09-14T01:02:59.466Z,11.90
2017-09-14T01:04:00.039Z,11.83
2017-09-14T01:05:00.613Z,11.78
2017-09-14T01:06:01.185Z,11.83
2017-09-14T01:07:08.034Z,11.77
2017-09-14T01:08:08.605Z,11.75
2017-09-14T01:09:09.176Z,11.81
2017-09-14T01:10:09.748Z,11.78
2017-09-14T01:11:10.318Z,11.72
2017-09-14T01:12:10.891Z,11.83
2017-09-14T01:13:11.462Z,11.81
2017-09-14T01:14:12.034Z,11.73
2017-09-14T01:15:12.607Z,11.83
2017-09-14T01:16:13.180Z,11.75
2017-09-14T01:17:13.752Z,11.68
2017-09-14T01:18:14.326Z,11.70
2017-09-14T01:19:14.899Z,11.65
2017-09-14T01:20:15.469Z,11.77
2017-09-14T01:21:16.051Z,11.72
2017-09-14T01:22:16.624Z,11.77
2017-09-14T01:23:17.207Z,11.75
2017-09-14T01:24:17.780Z,11.81
2017-09-14T01:25:18.354Z,11.75
2017-09-14T01:26:18.939Z,11.75
2017-09-14T01:27:19.507Z,11.77
2017-09-14T01:28:20.079Z,11.81
2017-09-14T01:29:20.657Z,11.80
2017-09-14T01:30:21.225Z,11.73
2017-09-14T01:31:21.800Z,11.69
2017-09-14T01:32:22.370Z,11.73
2017-09-14T01:33:22.944Z,11.73
2017-09-14T01:34:23.513Z,11.77
2017-09-14T01:35:24.086Z,11.80
2017-09-14T01:36:24.658Z,11.77
2017-09-14T01:37:25.229Z,11.69
2017-09-14T01:38:25.800Z,11.75
2017-09-14T01:39:26.375Z,11.73
2017-09-14T01:40:26.958Z,11.73
2017-09-14T01:41:27.529Z,11.77
2017-09-14T01:42:28.102Z,11.77
2017-09-14T01:43:28.675Z,11.87
2017-09-14T01:44:29.246Z,11.75
2017-09-14T01:45:29.821Z,11.70
2017-09-14T01:46:30.392Z,11.77
2017-09-14T01:47:30.967Z,11.72
2017-09-14T01:48:31.539Z,11.65
2017-09-14T01:49:32.111Z,11.66
2017-09-14T01:50:32.683Z,11.66
2017-09-14T01:51:33.254Z,11.73
2017-09-14T01:52:33.840Z,11.72
2017-09-14T01:53:34.410Z,11.72
2017-09-14T01:54:34.984Z,11.72
2017-09-14T01:55:35.554Z,11.69
2017-09-14T01:56:36.125Z,11.70
2017-09-14T01:57:36.698Z,11.68
2017-09-14T01:58:37.270Z,11.72
2017-09-14T01:59:37.854Z,11.65
2017-09-14T02:00:38.425Z,11.68
2017-09-14T02:01:38.996Z,11.66
2017-09-14T02:02:39.569Z,11.70
2017-09-14T02:03:40.142Z,11.65
2017-09-14T02:04:40.716Z,11.70
2017-09-14T02:05:41.288Z,11.68
2017-09-14T02:06:41.860Z,11.63
2017-09-14T02:07:42.431Z,11.66
2017-09-14T02:08:43.002Z,11.68
2017-09-14T02:09:43.574Z,11.66
2017-09-14T02:10:44.147Z,11.62
2017-09-14T02:11:44.730Z,11.66
2017-09-14T02:12:45.299Z,11.65
2017-09-14T02:13:45.872Z,11.62
2017-09-14T02:14:46.443Z,11.65
2017-09-14T02:15:47.014Z,11.59
2017-09-14T02:16:47.586Z,11.59
2017-09-14T02:17:48.158Z,11.55
2017-09-14T02:18:48.729Z,11.62
2017-09-14T02:19:49.301Z,11.57
2017-09-14T02:20:49.875Z,11.55
2017-09-14T02:21:50.448Z,11.52
2017-09-14T02:22:51.023Z,11.60
2017-09-14T02:23:51.594Z,11.54
2017-09-14T02:24:52.166Z,11.54
2017-09-14T02:25:52.737Z,11.57
2017-09-14T02:26:53.309Z,11.51
2017-09-14T02:27:53.881Z,11.57
2017-09-14T02:28:54.454Z,11.51
2017-09-14T02:29:55.028Z,11.54
2017-09-14T02:30:55.600Z,11.51
2017-09-14T02:31:56.173Z,11.52
2017-09-14T02:32:56.743Z,11.45
2017-09-14T02:33:57.314Z,11.50
2017-09-14T02:34:57.890Z,11.45
2017-09-14T02:35:58.458Z,11.54
2017-09-14T02:36:59.027Z,11.47
2017-09-14T02:37:59.599Z,11.54
2017-09-14T02:39:00.171Z,11.51
2017-09-14T02:40:00.741Z,11.54
2017-09-14T02:41:01.325Z,11.55
2017-09-14T02:42:01.900Z,11.50
2017-09-14T02:43:02.472Z,11.52
2017-09-14T02:44:03.044Z,11.52
2017-09-14T02:45:03.626Z,11.44
2017-09-14T02:46:04.190Z,11.45
2017-09-14T02:47:04.763Z,11.45
2017-09-14T02:48:05.335Z,11.47
2017-09-14T02:49:05.907Z,11.45
2017-09-14T02:50:06.477Z,11.47
2017-09-14T02:51:07.048Z,11.48
2017-09-14T02:52:07.620Z,11.47
2017-09-14T02:53:08.192Z,11.43
2017-09-14T02:54:08.763Z,11.43
2017-09-14T02:55:09.337Z,11.29
2017-09-14T02:56:09.908Z,11.35
2017-09-14T02:57:10.482Z,11.41
2017-09-14T02:58:11.053Z,11.33
2017-09-14T02:59:11.626Z,11.36
2017-09-14T03:00:12.199Z,11.37
2017-09-14T03:01:12.769Z,11.41
2017-09-14T03:02:13.341Z,11.40
2017-09-14T03:03:13.913Z,11.44
2017-09-14T03:04:14.483Z,11.35
2017-09-14T03:05:15.054Z,11.36
2017-09-14T03:06:15.665Z,11.41
2017-09-14T03:07:16.201Z,11.41
2017-09-14T03:08:16.775Z,11.41
2017-09-14T03:09:17.344Z,11.54
2017-09-14T03:10:17.917Z,11.44
2017-09-14T03:11:18.489Z,11.44
2017-09-14T03:12:19.060Z,11.41
2017-09-14T03:13:19.631Z,11.47
2017-09-14T03:14:20.201Z,11.54
2017-09-14T03:15:20.773Z,11.48
2017-09-14T03:16:21.345Z,11.48
2017-09-14T03:17:21.920Z,11.45
2017-09-14T03:18:22.493Z,11.47
2017-09-14T03:19:23.066Z,11.54
2017-09-14T03:20:23.637Z,11.50
2017-09-14T03:21:24.210Z,11.62
2017-09-14T03:22:24.780Z,11.66
2017-09-14T03:23:25.352Z,11.60
2017-09-14T03:24:25.925Z,11.65
2017-09-14T03:25:26.509Z,11.66
2017-09-14T03:26:27.080Z,11.57
2017-09-14T03:27:27.652Z,11.63
2017-09-14T03:28:28.222Z,11.62
2017-09-14T03:29:28.796Z,11.59
2017-09-14T03:30:29.369Z,11.59
2017-09-14T03:31:29.942Z,11.59
2017-09-14T03:32:30.526Z,11.65
2017-09-14T03:33:31.099Z,11.62
2017-09-14T03:34:31.670Z,11.72
2017-09-14T03:35:32.244Z,11.68
2017-09-14T03:36:32.816Z,11.70
2017-09-14T03:37:33.387Z,11.63
2017-09-14T03:38:33.959Z,11.70
2017-09-14T03:39:34.532Z,11.69
2017-09-14T03:40:35.107Z,11.70
2017-09-14T03:41:35.681Z,11.78
2017-09-14T03:42:36.246Z,11.70
2017-09-14T03:43:36.818Z,11.77
2017-09-14T03:44:37.391Z,11.80
2017-09-14T03:45:37.965Z,11.73
2017-09-14T03:46:38.548Z,11.80
2017-09-14T03:47:39.121Z,11.70
2017-09-14T03:48:39.694Z,11.65
2017-09-14T03:49:40.266Z,11.65
2017-09-14T03:50:40.841Z,11.59
2017-09-14T03:51:41.422Z,11.60
2017-09-14T03:52:41.996Z,11.59
2017-09-14T03:53:42.570Z,11.59
2017-09-14T03:54:43.146Z,11.54
2017-09-14T03:55:43.726Z,11.55
2017-09-14T03:56:44.298Z,11.57
2017-09-14T03:57:44.870Z,11.57
2017-09-14T03:58:45.445Z,11.55
2017-09-14T03:59:46.015Z,11.65
2017-09-14T04:00:46.598Z,11.54
2017-09-14T04:01:47.172Z,11.52
2017-09-14T04:02:47.745Z,11.50
2017-09-14T04:03:48.315Z,11.54
2017-09-14T04:04:48.885Z,11.50
2017-09-14T04:05:49.456Z,11.62
2017-09-14T04:06:50.026Z,11.59
2017-09-14T04:07:50.597Z,11.55
2017-09-14T04:08:51.168Z,11.51
2017-09-14T04:09:51.742Z,11.62
2017-09-14T04:10:52.311Z,11.59
2017-09-14T04:11:52.884Z,11.54
2017-09-14T04:12:53.456Z,11.52
2017-09-14T04:13:54.029Z,11.52
2017-09-14T04:14:54.602Z,11.55
2017-09-14T04:15:55.175Z,11.54
2017-09-14T04:16:55.747Z,11.55
2017-09-14T04:17:56.318Z,11.59
2017-09-14T04:18:56.891Z,11.44
2017-09-14T04:19:57.462Z,11.51
2017-09-14T04:20:58.034Z,11.57
2017-09-14T04:21:58.607Z,11.50
2017-09-14T04:22:59.180Z,11.48
2017-09-14T04:23:59.754Z,11.43
2017-09-14T04:25:00.335Z,11.52
2017-09-14T04:26:00.908Z,11.48
2017-09-14T04:27:01.483Z,11.45
2017-09-14T04:28:02.055Z,11.41
2017-09-14T04:29:02.625Z,11.47
2017-09-14T04:30:03.198Z,11.41
2017-09-14T04:31:03.768Z,11.45
2017-09-14T04:32:04.340Z,11.44
2017-09-14T04:33:04.911Z,11.47
2017-09-14T04:34:05.483Z,11.35
2017-09-14T04:35:06.054Z,11.32
2017-09-14T04:36:06.627Z,11.45
2017-09-14T04:37:07.200Z,11.35
2017-09-14T04:38:07.772Z,11.43
2017-09-14T04:39:08.345Z,11.33
2017-09-14T04:40:08.917Z,11.40
2017-09-14T04:41:09.500Z,11.40
2017-09-14T04:42:10.078Z,11.45
2017-09-14T04:43:10.646Z,11.43
2017-09-14T04:44:11.216Z,11.35
2017-09-14T04:45:11.789Z,11.43
2017-09-14T04:46:12.361Z,11.37
2017-09-14T04:47:12.933Z,11.40
2017-09-14T04:48:13.530Z,11.32
2017-09-14T04:49:14.075Z,11.41
2017-09-14T04:50:14.648Z,11.35
2017-09-14T04:51:15.220Z,11.40
2017-09-14T04:52:15.792Z,11.35
2017-09-14T04:53:16.372Z,11.44
2017-09-14T04:54:16.938Z,11.51
2017-09-14T04:55:17.511Z,11.37
2017-09-14T04:56:18.083Z,11.41
2017-09-14T04:57:18.654Z,11.36
2017-09-14T04:58:19.227Z,11.43
2017-09-14T04:59:19.798Z,11.44
2017-09-14T05:00:20.372Z,11.47
2017-09-14T05:01:20.945Z,11.40
2017-09-14T05:02:21.518Z,11.41
2017-09-14T05:03:22.091Z,11.43
2017-09-14T05:04:22.664Z,11.43
2017-09-14T05:05:23.237Z,11.43
2017-09-14T05:06:23.808Z,11.43
2017-09-14T05:07:24.387Z,11.45
2017-09-14T05:08:24.957Z,11.40
2017-09-14T05:09:25.530Z,11.43
2017-09-14T05:10:26.104Z,11.45
2017-09-14T05:11:26.678Z,11.37
2017-09-14T05:12:27.261Z,11.40
2017-09-14T05:13:27.847Z,11.43
2017-09-14T05:14:28.421Z,11.48
2017-09-14T05:15:28.994Z,11.45
2017-09-14T05:16:29.566Z,11.43
2017-09-14T05:17:30.139Z,11.48
2017-09-14T05:18:30.712Z,11.41
2017-09-14T05:19:31.287Z,11.44
2017-09-14T05:20:31.859Z,11.45
2017-09-14T05:21:32.434Z,11.41
2017-09-14T05:22:33.018Z,11.41
2017-09-14T05:23:33.582Z,11.47
2017-09-14T05:24:34.156Z,11.41
2017-09-14T05:25:34.728Z,11.37
2017-09-14T05:26:35.313Z,11.48
2017-09-14T05:27:35.894Z,11.44
2017-09-14T05:28:36.471Z,11.45
2017-09-14T05:29:37.039Z,11.48
2017-09-14T05:30:37.611Z,11.45
2017-09-14T05:31:38.186Z,11.55
2017-09-14T05:32:38.760Z,11.52
2017-09-14T05:33:39.333Z,11.57
2017-09-14T05:34:39.905Z,11.54
2017-09-14T05:35:40.478Z,11.54
2017-09-14T05:36:41.052Z,11.52
2017-09-14T05:37:41.625Z,11.57
2017-09-14T05:38:42.203Z,11.57
2017-09-14T05:39:42.773Z,11.69
2017-09-14T05:40:43.355Z,11.62
2017-09-14T05:41:43.929Z,11.65
2017-09-14T05:42:44.502Z,11.63
2017-09-14T05:43:45.075Z,11.68
2017-09-14T05:44:45.649Z,11.63
2017-09-14T05:45:46.223Z,11.68
2017-09-14T05:46:46.795Z,11.59
2017-09-14T05:47:47.367Z,11.65
2017-09-14T05:48:47.940Z,11.70
2017-09-14T05:49:48.514Z,11.65
2017-09-14T05:50:49.088Z,11.65
2017-09-14T05:51:49.662Z,11.63
2017-09-14T05:52:50.233Z,11.68
2017-09-14T05:53:50.806Z,11.70
2017-09-14T05:54:51.380Z,11.63
2017-09-14T05:55:51.953Z,11.65
2017-09-14T05:56:52.527Z,11.65
2017-09-14T05:57:53.100Z,11.62
2017-09-14T05:58:53.672Z,11.60
2017-09-14T05:59:54.246Z,11.59
2017-09-14T06:00:54.820Z,11.62
2017-09-14T06:01:55.395Z,11.52
2017-09-14T06:02:55.969Z,11.48
2017-09-14T06:03:56.541Z,11.54
2017-09-14T06:04:57.114Z,11.57
2017-09-14T06:05:57.687Z,11.62
2017-09-14T06:06:58.262Z,11.59
2017-09-14T06:07:58.846Z,11.54
2017-09-14T06:08:59.418Z,11.59
2017-09-14T06:09:59.994Z,11.59
2017-09-14T06:11:00.568Z,11.66
2017-09-14T06:12:01.140Z,11.60
2017-09-14T06:13:01.713Z,11.65
2017-09-14T06:14:02.296Z,11.63
2017-09-14T06:15:02.872Z,11.62
2017-09-14T06:16:03.444Z,11.68
2017-09-14T06:17:04.019Z,11.55
2017-09-14T06:18:04.606Z,11.66
2017-09-14T06:19:05.176Z,11.68
2017-09-14T06:20:05.750Z,11.63
2017-09-14T06:21:06.324Z,11.73
2017-09-14T06:22:06.898Z,11.73
2017-09-14T06:23:07.472Z,11.72
2017-09-14T06:24:08.047Z,11.75
2017-09-14T06:25:08.621Z,11.73
2017-09-14T06:26:09.195Z,11.69
2017-09-14T06:27:09.770Z,11.70
2017-09-14T06:28:10.345Z,11.75
2017-09-14T06:29:10.924Z,11.77
2017-09-14T06:30:11.493Z,11.80
2017-09-14T06:31:12.066Z,11.73
2017-09-14T06:32:12.640Z,11.75
2017-09-14T06:33:13.216Z,11.77
2017-09-14T06:34:13.790Z,11.83
2017-09-14T06:35:14.365Z,11.69
2017-09-14T06:36:14.940Z,11.87
2017-09-14T06:37:15.526Z,11.83
2017-09-14T06:38:16.101Z,11.73
2017-09-14T06:39:16.677Z,11.84
2017-09-14T06:40:17.251Z,11.83
2017-09-14T06:41:17.824Z,11.88
2017-09-14T06:42:18.399Z,11.90
2017-09-14T06:43:18.974Z,11.88
2017-09-14T06:44:19.551Z,11.95
2017-09-14T06:45:20.124Z,11.95
2017-09-14T06:46:20.698Z,11.95
2017-09-14T06:47:21.285Z,11.91
2017-09-14T06:48:21.859Z,11.90
2017-09-14T06:49:22.432Z,11.97
2017-09-14T06:50:23.008Z,11.99
2017-09-14T06:51:23.583Z,11.99
2017-09-14T06:52:24.157Z,11.94
2017-09-14T06:53:24.743Z,12.03
2017-09-14T06:54:25.317Z,12.10
2017-09-14T06:55:25.904Z,12.04
2017-09-14T06:56:26.489Z,12.04
2017-09-14T06:57:27.074Z,12.04
2017-09-14T06:58:27.645Z,12.09
2017-09-14T06:59:28.231Z,12.12
2017-09-14T07:00:28.807Z,12.09
2017-09-14T07:01:29.381Z,12.13
2017-09-14T07:02:29.957Z,12.12
2017-09-14T07:03:30.533Z,12.06
2017-09-14T07:04:31.110Z,12.07
2017-09-14T07:05:31.690Z,12.10
2017-09-14T07:06:32.266Z,12.12
2017-09-14T07:07:32.841Z,12.12
2017-09-14T07:08:33.414Z,12.10
2017-09-14T07:09:33.991Z,12.03
2017-09-14T07:10:34.565Z,12.13
2017-09-14T07:11:35.150Z,12.12
2017-09-14T07:12:35.728Z,12.07
2017-09-14T07:13:36.299Z,12.13
2017-09-14T07:14:36.875Z,12.04
2017-09-14T07:15:37.449Z,12.06
2017-09-14T07:16:38.023Z,12.06
2017-09-14T07:17:38.598Z,12.06
2017-09-14T07:18:39.172Z,11.99
2017-09-14T07:19:39.746Z,11.99
2017-09-14T07:20:40.319Z,12.00
2017-09-14T07:21:40.892Z,11.97
2017-09-14T07:22:41.467Z,11.99
2017-09-14T07:23:42.042Z,12.02
2017-09-14T07:24:42.615Z,12.02
2017-09-14T07:25:43.187Z,11.97
2017-09-14T07:26:43.760Z,11.95
2017-09-14T07:27:44.332Z,11.77
2017-09-14T07:28:44.907Z,11.77
2017-09-14T07:29:45.483Z,11.73
2017-09-14T07:30:46.053Z,11.63
2017-09-14T07:31:46.638Z,11.54
2017-09-14T07:32:47.215Z,11.54
2017-09-14T07:33:47.789Z,11.41
2017-09-14T07:34:48.362Z,11.45
2017-09-14T07:35:48.936Z,11.45
2017-09-14T07:36:49.509Z,11.40
2017-09-14T07:37:50.086Z,11.44
2017-09-14T07:38:50.660Z,11.44
2017-09-14T07:39:51.235Z,11.40
2017-09-14T07:40:51.809Z,11.36
2017-09-14T07:41:52.383Z,11.40
2017-09-14T07:42:52.991Z,11.26
2017-09-14T07:43:53.547Z,11.23
2017-09-14T07:44:54.121Z,11.27
2017-09-14T07:45:54.696Z,11.32
2017-09-14T07:46:55.268Z,11.25
2017-09-14T07:47:55.843Z,11.10
2017-09-14T07:48:56.417Z,11.10
2017-09-14T07:49:56.990Z,11.15
2017-09-14T07:50:57.567Z,11.02
2017-09-14T07:51:58.138Z,11.08
2017-09-14T07:52:58.711Z,10.94
2017-09-14T07:53:59.289Z,11.04
2017-09-14T07:54:59.864Z,11.07
2017-09-14T07:56:00.451Z,11.05
2017-09-14T07:57:01.029Z,11.00
2017-09-14T07:58:01.603Z,11.14
2017-09-14T07:59:02.182Z,11.10
2017-09-14T08:00:02.759Z,11.10
2017-09-14T08:01:03.330Z,11.15
2017-09-14T08:02:03.905Z,11.05
2017-09-14T08:03:04.481Z,11.02
2017-09-14T08:04:05.055Z,11.05
2017-09-14T08:05:05.631Z,11.08
2017-09-14T08:06:06.204Z,11.08
2017-09-14T08:07:06.780Z,11.07
2017-09-14T08:08:07.365Z,11.02
2017-09-14T08:09:07.929Z,11.05
2017-09-14T08:10:08.503Z,11.15
2017-09-14T08:11:09.078Z,11.04
2017-09-14T08:12:09.654Z,11.05
2017-09-14T08:13:10.230Z,11.02
2017-09-14T08:14:10.805Z,11.14
2017-09-14T08:15:11.379Z,11.19
2017-09-14T08:16:11.956Z,11.11
2017-09-14T08:17:12.531Z,11.17
2017-09-14T08:18:13.105Z,11.11
2017-09-14T08:19:13.680Z,11.23
2017-09-14T08:20:14.256Z,11.14
2017-09-14T08:21:14.832Z,11.14
2017-09-14T08:22:15.411Z,11.23
2017-09-14T08:23:15.995Z,11.11
2017-09-14T08:24:16.588Z,11.23
2017-09-14T08:25:17.168Z,11.30
2017-09-14T08:26:17.745Z,11.23
2017-09-14T08:27:18.320Z,11.26
2017-09-14T08:28:18.895Z,11.26
2017-09-14T08:29:19.478Z,11.26
2017-09-14T08:30:20.058Z,11.30
2017-09-14T08:31:20.627Z,11.29
2017-09-14T08:32:21.205Z,11.29
2017-09-14T08:33:21.779Z,11.27
2017-09-14T08:34:22.354Z,11.26
2017-09-14T08:35:22.931Z,11.29
2017-09-14T08:36:23.504Z,11.30
2017-09-14T08:37:24.080Z,11.29
2017-09-14T08:38:24.654Z,11.27
2017-09-14T08:39:25.230Z,11.30
2017-09-14T08:40:25.806Z,11.47
2017-09-14T08:41:26.381Z,11.45
2017-09-14T08:42:26.954Z,11.45
2017-09-14T08:43:27.531Z,11.41
2017-09-14T08:44:28.106Z,11.45
2017-09-14T08:45:28.680Z,11.48
2017-09-14T08:46:29.256Z,11.44
2017-09-14T08:47:29.832Z,11.41
2017-09-14T08:48:30.407Z,11.33
2017-09-14T08:49:30.981Z,11.26
2017-09-14T08:50:31.555Z,11.33
2017-09-14T08:51:32.130Z,11.29
2017-09-14T08:52:32.715Z,11.26
2017-09-14T08:53:33.293Z,11.26
2017-09-14T08:54:33.871Z,11.17
2017-09-14T08:55:34.440Z,11.27
2017-09-14T08:56:35.014Z,11.22
2017-09-14T08:57:35.588Z,11.29
2017-09-14T08:58:36.161Z,11.27
2017-09-14T08:59:36.735Z,11.18
2017-09-14T09:00:37.308Z,11.25
2017-09-14T09:01:37.892Z,11.26
2017-09-14T09:02:38.469Z,11.22
2017-09-14T09:03:39.043Z,11.22
2017-09-14T09:04:39.617Z,11.23
2017-09-14T09:05:40.189Z,11.26
2017-09-14T09:06:40.763Z,11.17
2017-09-14T09:07:41.339Z,11.27
2017-09-14T09:08:41.912Z,11.27
2017-09-14T09:09:42.485Z,11.18
2017-09-14T09:10:43.059Z,11.14
2017-09-14T09:11:43.635Z,11.23
2017-09-14T09:12:44.209Z,11.17
2017-09-14T09:13:44.784Z,11.25
2017-09-14T09:14:45.358Z,11.22
2017-09-14T09:15:45.930Z,11.11
2017-09-14T09:16:46.505Z,11.05
2017-09-14T09:17:47.088Z,11.02
2017-09-14T09:18:47.662Z,11.12
2017-09-14T09:19:48.236Z,11.04
2017-09-14T09:20:48.811Z,11.02
2017-09-14T09:21:49.383Z,11.05
2017-09-14T09:22:49.958Z,10.99
2017-09-14T09:23:50.534Z,10.94
2017-09-14T09:24:51.107Z,11.02
2017-09-14T09:25:51.683Z,10.99
2017-09-14T09:26:52.257Z,11.12
2017-09-14T09:27:52.831Z,11.10
2017-09-14T09:28:53.413Z,11.00
2017-09-14T09:29:53.988Z,11.02
2017-09-14T09:30:54.557Z,11.05
2017-09-14T09:31:55.132Z,10.93
2017-09-14T09:32:55.707Z,10.96
2017-09-14T09:33:56.285Z,10.87
2017-09-14T09:34:56.860Z,10.96
2017-09-14T09:35:57.435Z,10.96
2017-09-14T09:36:58.012Z,10.97
2017-09-14T09:37:58.587Z,11.11
2017-09-14T09:38:59.162Z,11.32
2017-09-14T09:39:59.739Z,11.47
2017-09-14T09:41:00.313Z,11.55
2017-09-14T09:42:00.888Z,11.65
2017-09-14T09:43:01.462Z,11.45
2017-09-14T09:44:02.039Z,11.45
2017-09-14T09:45:02.619Z,11.40
2017-09-14T09:46:03.190Z,11.45
2017-09-14T09:47:03.764Z,11.45
2017-09-14T09:48:04.350Z,11.22
2017-09-14T09:49:04.936Z,11.23
2017-09-14T09:50:05.512Z,11.40
2017-09-14T09:51:06.086Z,11.55
2017-09-14T09:52:06.662Z,11.66
2017-09-14T09:53:07.241Z,11.86
2017-09-14T09:54:07.826Z,11.90
2017-09-14T09:55:08.402Z,11.75
2017-09-14T09:56:08.976Z,11.66
2017-09-14T09:57:09.553Z,11.70
2017-09-14T09:58:10.129Z,11.75
2017-09-14T09:59:10.704Z,11.73
2017-09-14T10:00:11.278Z,11.94
2017-09-14T10:01:11.853Z,12.13
2017-09-14T10:02:12.430Z,12.13
2017-09-14T10:03:13.006Z,12.12
2017-09-14T10:04:13.580Z,12.07
2017-09-14T10:05:14.157Z,12.04
2017-09-14T10:06:14.734Z,12.04
2017-09-14T10:07:15.309Z,12.15
2017-09-14T10:08:15.886Z,12.21
2017-09-14T10:09:16.470Z,12.40
2017-09-14T10:10:17.043Z,12.37
2017-09-14T10:11:17.625Z,12.47
2017-09-14T10:12:18.198Z,12.43
2017-09-14T10:13:18.774Z,12.58
2017-09-14T10:14:19.347Z,12.65
2017-09-14T10:15:19.926Z,12.55
2017-09-14T10:16:20.500Z,12.65
2017-09-14T10:17:21.076Z,12.85
2017-09-14T10:18:21.651Z,12.85
2017-09-14T10:19:22.227Z,12.73
2017-09-14T10:20:22.802Z,12.79
2017-09-14T10:21:23.389Z,12.83
2017-09-14T10:22:23.973Z,12.90
2017-09-14T10:23:24.551Z,12.83
2017-09-14T10:24:25.136Z,12.95
2017-09-14T10:25:25.713Z,13.15
2017-09-14T10:26:26.289Z,13.18
2017-09-14T10:27:26.966Z,13.08
2017-09-14T10:28:27.541Z,13.25
2017-09-14T10:29:28.116Z,13.12
2017-09-14T10:30:28.692Z,13.23
2017-09-14T10:31:29.269Z,13.16
2017-09-14T10:32:29.842Z,13.33
2017-09-14T10:33:30.418Z,13.27
2017-09-14T10:34:30.992Z,13.46
2017-09-14T10:35:31.567Z,13.44
2017-09-14T10:36:32.146Z,13.52
2017-09-14T10:37:32.722Z,13.70
2017-09-14T10:38:33.297Z,13.87
2017-09-14T10:39:33.878Z,13.67
2017-09-14T10:40:34.452Z,13.63
2017-09-14T10:41:35.026Z,13.74
2017-09-14T10:42:35.603Z,13.63
2017-09-14T10:43:36.179Z,13.57
2017-09-14T10:44:36.776Z,13.28
2017-09-14T10:45:37.330Z,13.52
2017-09-14T10:46:37.906Z,13.68
2017-09-14T10:47:38.483Z,13.70
2017-09-14T10:48:39.058Z,13.50
2017-09-14T10:49:39.635Z,13.53
2017-09-14T10:50:40.210Z,13.74
2017-09-14T10:51:40.787Z,13.83
2017-09-14T10:52:41.365Z,13.81
2017-09-14T10:53:41.940Z,13.90
2017-09-14T10:54:42.517Z,13.92
2017-09-14T10:55:43.095Z,13.90
2017-09-14T10:56:43.672Z,13.75
2017-09-14T10:57:44.247Z,13.54
2017-09-14T10:58:44.822Z,13.44
2017-09-14T10:59:45.399Z,13.39
2017-09-14T11:00:45.977Z,13.54
2017-09-14T11:01:46.554Z,13.56
2017-09-14T11:02:47.130Z,13.56
2017-09-14T11:03:47.707Z,13.53
2017-09-14T11:04:48.285Z,13.57
2017-09-14T11:05:48.863Z,13.72
2017-09-14T11:06:49.441Z,13.85
2017-09-14T11:07:50.016Z,14.00
2017-09-14T11:08:50.593Z,13.97
2017-09-14T11:09:51.169Z,13.97
2017-09-14T11:10:51.746Z,14.10
2017-09-14T11:11:52.324Z,14.04
2017-09-14T11:12:52.899Z,14.20
2017-09-14T11:13:53.474Z,14.25
2017-09-14T11:14:54.052Z,14.26
2017-09-14T11:15:54.630Z,14.40
2017-09-14T11:16:55.211Z,14.51
2017-09-14T11:17:55.781Z,14.59
2017-09-14T11:18:56.356Z,14.36
2017-09-14T11:19:56.936Z,14.29
2017-09-14T11:20:57.512Z,14.29
2017-09-14T11:21:58.100Z,14.26
2017-09-14T11:22:58.676Z,14.32
2017-09-14T11:23:59.256Z,14.58
2017-09-14T11:24:59.834Z,14.70
2017-09-14T11:26:00.409Z,14.50
2017-09-14T11:27:00.986Z,14.48
2017-09-14T11:28:01.563Z,14.29
2017-09-14T11:29:02.142Z,14.32
2017-09-14T11:30:02.728Z,14.29
2017-09-14T11:31:03.304Z,14.43
2017-09-14T11:32:03.881Z,14.50
2017-09-14T11:33:04.457Z,14.22
2017-09-14T11:34:05.035Z,14.33
2017-09-14T11:35:05.614Z,14.17
2017-09-14T11:36:06.190Z,14.20
2017-09-14T11:37:06.768Z,14.23
2017-09-14T11:38:07.346Z,14.17
2017-09-14T11:39:07.923Z,14.15
2017-09-14T11:40:08.512Z,14.10
2017-09-14T11:41:09.088Z,14.15
2017-09-14T11:42:09.662Z,14.22
2017-09-14T11:43:10.239Z,14.23
2017-09-14T11:44:10.818Z,14.30
2017-09-14T11:45:11.394Z,14.15
2017-09-14T11:46:11.969Z,14.14
2017-09-14T11:47:12.545Z,14.29
2017-09-14T11:48:13.123Z,14.37
2017-09-14T11:49:13.701Z,14.72
2017-09-14T11:50:14.276Z,14.70
2017-09-14T11:51:14.853Z,14.97
2017-09-14T11:52:15.430Z,14.91
2017-09-14T11:53:16.006Z,14.85
2017-09-14T11:54:16.584Z,14.89
2017-09-14T11:55:17.159Z,14.65
2017-09-14T11:56:17.736Z,14.66
2017-09-14T11:57:18.313Z,14.65
2017-09-14T11:58:18.890Z,14.73
2017-09-14T11:59:19.466Z,14.68
2017-09-14T12:00:20.043Z,14.51
2017-09-14T12:01:20.620Z,14.44
2017-09-14T12:02:21.197Z,14.37
2017-09-14T12:03:21.774Z,14.20
2017-09-14T12:04:22.351Z,14.25
2017-09-14T12:05:22.930Z,14.14
2017-09-14T12:06:23.507Z,14.20
2017-09-14T12:07:24.084Z,14.33
2017-09-14T12:08:24.663Z,14.43
2017-09-14T12:09:25.239Z,14.68
2017-09-14T12:10:25.828Z,14.81
2017-09-14T12:11:26.418Z,14.91
2017-09-14T12:12:26.998Z,14.89
2017-09-14T12:13:27.578Z,14.96
2017-09-14T12:14:28.159Z,15.06
2017-09-14T12:15:28.730Z,15.07
2017-09-14T12:16:29.306Z,15.11
2017-09-14T12:17:29.881Z,15.11
2017-09-14T12:18:30.457Z,15.17
2017-09-14T12:19:31.035Z,15.10
2017-09-14T12:20:31.622Z,15.10
2017-09-14T12:21:32.201Z,15.09
2017-09-14T12:22:32.779Z,14.92
2017-09-14T12:23:33.356Z,14.96
2017-09-14T12:24:33.935Z,14.94
2017-09-14T12:25:34.512Z,14.96
2017-09-14T12:26:35.091Z,14.85
2017-09-14T12:27:35.666Z,14.89
2017-09-14T12:28:36.245Z,14.77
2017-09-14T12:29:36.824Z,14.84
2017-09-14T12:30:37.401Z,14.99
2017-09-14T12:31:37.978Z,14.78
2017-09-14T12:32:38.556Z,14.72
2017-09-14T12:33:39.139Z,14.89
2017-09-14T12:34:39.711Z,14.89
2017-09-14T12:35:40.288Z,15.00
2017-09-14T12:36:40.866Z,15.09
2017-09-14T12:37:41.443Z,14.94
2017-09-14T12:38:42.021Z,14.97
2017-09-14T12:39:42.597Z,14.89
2017-09-14T12:40:43.177Z,14.86
2017-09-14T12:41:43.766Z,14.94
2017-09-14T12:42:44.342Z,14.94
2017-09-14T12:43:44.923Z,15.00
2017-09-14T12:44:45.496Z,14.97
2017-09-14T12:45:46.074Z,15.07
2017-09-14T12:46:46.652Z,14.99
2017-09-14T12:47:47.229Z,14.85
2017-09-14T12:48:47.807Z,14.97
2017-09-14T12:49:48.386Z,14.73
2017-09-14T12:50:48.963Z,14.77
2017-09-14T12:51:49.539Z,14.84
2017-09-14T12:52:50.119Z,14.89
2017-09-14T12:53:50.696Z,15.02
2017-09-14T12:54:51.274Z,15.04
2017-09-14T12:55:51.851Z,14.96
2017-09-14T12:56:52.428Z,14.85
2017-09-14T12:57:53.008Z,15.03
2017-09-14T12:58:53.584Z,15.18
2017-09-14T12:59:54.160Z,15.15